sensor_id;sensor_type;location;lat;lon;timestamp;pressure;altitude;pressure_sealevel;temperature;humidity
45255;BME280;30989;52.078;21.014;2023-02-28T00:00:13;162902.19;;;-3.24;82.75
45255;BME280;30989;52.078;21.014;2023-02-28T00:02:42;162904.81;;;-3.23;82.59
45255;BME280;30989;52.078;21.014;2023-02-28T00:05:08;162899.53;;;-3.25;83.23
45255;BME280;30989;52.078;21.014;2023-02-28T00:07:35;162883.59;;;-3.31;83.42
45255;BME280;30989;52.078;21.014;2023-02-28T00:10:01;162896.88;;;-3.26;84.58
45255;BME280;30989;52.078;21.014;2023-02-28T00:12:26;162891.56;;;-3.28;85.73
45255;BME280;30989;52.078;21.014;2023-02-28T00:14:52;162875.66;;;-3.34;84.84
45255;BME280;30989;52.078;21.014;2023-02-28T00:17:18;162865.03;;;-3.38;84.61
45255;BME280;30989;52.078;21.014;2023-02-28T00:19:50;162875.66;;;-3.34;84.94
45255;BME280;30989;52.078;21.014;2023-02-28T00:22:18;162873.00;;;-3.35;85.88
45255;BME280;30989;52.078;21.014;2023-02-28T00:24:44;162862.38;;;-3.39;86.17
45255;BME280;30989;52.078;21.014;2023-02-28T00:27:09;162851.78;;;-3.43;86.31
45255;BME280;30989;52.078;21.014;2023-02-28T00:29:36;162849.13;;;-3.44;86.50
45255;BME280;30989;52.078;21.014;2023-02-28T00:32:03;162841.16;;;-3.47;86.88
45255;BME280;30989;52.078;21.014;2023-02-28T00:34:29;162822.59;;;-3.54;86.86
45255;BME280;30989;52.078;21.014;2023-02-28T00:36:55;162812.00;;;-3.59;87.09
45255;BME280;30989;52.078;21.014;2023-02-28T00:39:20;162804.03;;;-3.62;88.33
45255;BME280;30989;52.078;21.014;2023-02-28T00:41:47;162792.09;;;-3.66;88.20
45255;BME280;30989;52.078;21.014;2023-02-28T00:44:13;162789.44;;;-3.67;88.74
45255;BME280;30989;52.078;21.014;2023-02-28T00:46:38;162782.81;;;-3.70;88.77
45255;BME280;30989;52.078;21.014;2023-02-28T00:49:04;162780.16;;;-3.71;89.39
45255;BME280;30989;52.078;21.014;2023-02-28T00:51:29;162768.22;;;-3.75;90.07
45255;BME280;30989;52.078;21.014;2023-02-28T00:53:56;162766.91;;;-3.76;89.78
45255;BME280;30989;52.078;21.014;2023-02-28T00:56:22;162764.25;;;-3.77;90.31
45255;BME280;30989;52.078;21.014;2023-02-28T00:58:48;162751.00;;;-3.82;90.49
45255;BME280;30989;52.078;21.014;2023-02-28T01:01:13;162751.00;;;-3.82;90.72
45255;BME280;30989;52.078;21.014;2023-02-28T01:03:39;162741.72;;;-3.85;91.24
45255;BME280;30989;52.078;21.014;2023-02-28T01:06:05;162736.41;;;-3.87;91.10
45255;BME280;30989;52.078;21.014;2023-02-28T01:08:30;162737.75;;;-3.87;90.91
45255;BME280;30989;52.078;21.014;2023-02-28T01:10:56;162729.78;;;-3.90;91.05
45255;BME280;30989;52.078;21.014;2023-02-28T01:13:21;162725.81;;;-3.92;92.19
45255;BME280;30989;52.078;21.014;2023-02-28T01:15:54;162712.56;;;-3.97;92.12
45255;BME280;30989;52.078;21.014;2023-02-28T01:18:21;162719.19;;;-3.94;92.82
45255;BME280;30989;52.078;21.014;2023-02-28T01:20:46;162700.63;;;-4.01;92.52
45255;BME280;30989;52.078;21.014;2023-02-28T01:23:12;162701.94;;;-4.01;92.42
45255;BME280;30989;52.078;21.014;2023-02-28T01:25:38;162671.47;;;-4.12;92.00
45255;BME280;30989;52.078;21.014;2023-02-28T01:28:04;162690.03;;;-4.05;92.68
45255;BME280;30989;52.078;21.014;2023-02-28T01:30:31;162659.53;;;-4.17;92.09
45255;BME280;30989;52.078;21.014;2023-02-28T01:32:57;162675.44;;;-4.11;91.31
45255;BME280;30989;52.078;21.014;2023-02-28T01:35:24;162671.47;;;-4.12;92.23
45255;BME280;30989;52.078;21.014;2023-02-28T01:37:49;162664.84;;;-4.15;92.75
45255;BME280;30989;52.078;21.014;2023-02-28T01:40:15;162656.88;;;-4.18;93.14
45255;BME280;30989;52.078;21.014;2023-02-28T01:42:41;162652.91;;;-4.19;93.46
45255;BME280;30989;52.078;21.014;2023-02-28T01:45:22;162647.59;;;-4.22;93.99
45255;BME280;30989;52.078;21.014;2023-02-28T01:47:53;162634.34;;;-4.27;93.56
45255;BME280;30989;52.078;21.014;2023-02-28T01:50:23;162623.75;;;-4.31;94.21
45255;BME280;30989;52.078;21.014;2023-02-28T01:52:50;162619.78;;;-4.32;93.87
45255;BME280;30989;52.078;21.014;2023-02-28T01:55:19;162598.56;;;-4.40;93.92
45255;BME280;30989;52.078;21.014;2023-02-28T01:57:51;162602.53;;;-4.39;94.03
45255;BME280;30989;52.078;21.014;2023-02-28T02:00:20;162595.91;;;-4.41;94.09
45255;BME280;30989;52.078;21.014;2023-02-28T02:02:49;162584.00;;;-4.46;94.26
45255;BME280;30989;52.078;21.014;2023-02-28T02:05:21;162573.38;;;-4.50;94.51
45255;BME280;30989;52.078;21.014;2023-02-28T02:07:54;162565.44;;;-4.53;94.94
45255;BME280;30989;52.078;21.014;2023-02-28T02:10:42;162562.78;;;-4.54;95.10
45255;BME280;30989;52.078;21.014;2023-02-28T02:19:27;162540.25;;;-4.63;95.75
45255;BME280;30989;52.078;21.014;2023-02-28T02:25:09;162534.97;;;-4.65;96.42
45255;BME280;30989;52.078;21.014;2023-02-28T02:27:45;162528.34;;;-4.67;96.23
45255;BME280;30989;52.078;21.014;2023-02-28T02:33:42;162509.78;;;-4.74;95.97
45255;BME280;30989;52.078;21.014;2023-02-28T02:36:16;162499.19;;;-4.78;96.39
45255;BME280;30989;52.078;21.014;2023-02-28T02:39:31;162480.66;;;-4.85;96.44
45255;BME280;30989;52.078;21.014;2023-02-28T02:41:53;162485.94;;;-4.83;97.00
45255;BME280;30989;52.078;21.014;2023-02-28T02:45:01;162480.66;;;-4.85;97.38
45255;BME280;30989;52.078;21.014;2023-02-28T02:47:30;162472.69;;;-4.89;97.54
45255;BME280;30989;52.078;21.014;2023-02-28T02:50:01;162454.16;;;-4.96;98.10
45255;BME280;30989;52.078;21.014;2023-02-28T02:52:39;162459.44;;;-4.94;98.39
45255;BME280;30989;52.078;21.014;2023-02-28T02:55:08;162459.44;;;-4.94;98.34
45255;BME280;30989;52.078;21.014;2023-02-28T02:57:49;162460.78;;;-4.93;98.08
45255;BME280;30989;52.078;21.014;2023-02-28T03:00:18;162454.16;;;-4.96;98.32
45255;BME280;30989;52.078;21.014;2023-02-28T03:02:46;162455.47;;;-4.95;99.03
45255;BME280;30989;52.078;21.014;2023-02-28T03:05:23;162459.44;;;-4.94;99.59
45255;BME280;30989;52.078;21.014;2023-02-28T03:07:50;162448.84;;;-4.98;98.89
45255;BME280;30989;52.078;21.014;2023-02-28T03:10:34;162456.81;;;-4.95;99.70
45255;BME280;30989;52.078;21.014;2023-02-28T03:16:33;162448.84;;;-4.98;99.70
45255;BME280;30989;52.078;21.014;2023-02-28T03:27:06;162432.97;;;-5.04;99.24
45255;BME280;30989;52.078;21.014;2023-02-28T03:29:35;162438.25;;;-5.02;99.88
45255;BME280;30989;52.078;21.014;2023-02-28T03:32:27;162436.94;;;-5.02;99.72
45255;BME280;30989;52.078;21.014;2023-02-28T03:35:22;162417.06;;;-5.10;99.63
45255;BME280;30989;52.078;21.014;2023-02-28T03:38:01;162443.56;;;-5.00;99.53
45255;BME280;30989;52.078;21.014;2023-02-28T03:40:32;162435.59;;;-5.03;99.51
45255;BME280;30989;52.078;21.014;2023-02-28T03:43:02;162435.59;;;-5.03;99.36
45255;BME280;30989;52.078;21.014;2023-02-28T03:45:32;162439.59;;;-5.01;99.93
45255;BME280;30989;52.078;21.014;2023-02-28T03:48:05;162440.91;;;-5.01;100.00
45255;BME280;30989;52.078;21.014;2023-02-28T03:50:38;162443.56;;;-5.00;100.00
45255;BME280;30989;52.078;21.014;2023-02-28T03:53:12;162440.91;;;-5.01;100.00
45255;BME280;30989;52.078;21.014;2023-02-28T03:55:48;162432.97;;;-5.04;100.00
45255;BME280;30989;52.078;21.014;2023-02-28T03:58:27;162419.72;;;-5.09;100.00
45255;BME280;30989;52.078;21.014;2023-02-28T04:01:12;162434.28;;;-5.03;100.00
45255;BME280;30989;52.078;21.014;2023-02-28T04:03:39;162430.31;;;-5.05;100.00
45255;BME280;30989;52.078;21.014;2023-02-28T04:06:15;162417.06;;;-5.10;100.00
45255;BME280;30989;52.078;21.014;2023-02-28T04:08:41;162427.66;;;-5.06;99.97
45255;BME280;30989;52.078;21.014;2023-02-28T04:11:16;162435.59;;;-5.03;100.00
45255;BME280;30989;52.078;21.014;2023-02-28T04:13:43;162434.28;;;-5.03;100.00
45255;BME280;30989;52.078;21.014;2023-02-28T04:16:09;162431.63;;;-5.04;100.00
45255;BME280;30989;52.078;21.014;2023-02-28T04:18:38;162432.97;;;-5.04;100.00
45255;BME280;30989;52.078;21.014;2023-02-28T04:21:05;162430.31;;;-5.05;100.00
45255;BME280;30989;52.078;21.014;2023-02-28T04:23:31;162432.97;;;-5.04;100.00
45255;BME280;30989;52.078;21.014;2023-02-28T04:25:56;162422.38;;;-5.08;100.00
45255;BME280;30989;52.078;21.014;2023-02-28T04:28:22;162415.75;;;-5.10;100.00
45255;BME280;30989;52.078;21.014;2023-02-28T04:30:47;162415.75;;;-5.10;100.00
45255;BME280;30989;52.078;21.014;2023-02-28T04:33:13;162409.13;;;-5.13;100.00
45255;BME280;30989;52.078;21.014;2023-02-28T04:35:38;162403.81;;;-5.15;100.00
45255;BME280;30989;52.078;21.014;2023-02-28T04:38:04;162409.13;;;-5.13;100.00
45255;BME280;30989;52.078;21.014;2023-02-28T04:40:29;162393.22;;;-5.19;100.00
45255;BME280;30989;52.078;21.014;2023-02-28T04:42:55;162398.53;;;-5.17;100.00
45255;BME280;30989;52.078;21.014;2023-02-28T04:45:20;162394.56;;;-5.18;100.00
45255;BME280;30989;52.078;21.014;2023-02-28T04:47:45;162390.59;;;-5.20;100.00
45255;BME280;30989;52.078;21.014;2023-02-28T04:50:11;162395.88;;;-5.18;100.00
45255;BME280;30989;52.078;21.014;2023-02-28T04:52:36;162386.56;;;-5.22;100.00
45255;BME280;30989;52.078;21.014;2023-02-28T04:55:02;162386.56;;;-5.22;100.00
45255;BME280;30989;52.078;21.014;2023-02-28T04:57:27;162386.56;;;-5.22;100.00
45255;BME280;30989;52.078;21.014;2023-02-28T04:59:53;162366.69;;;-5.29;100.00
45255;BME280;30989;52.078;21.014;2023-02-28T05:02:18;162391.91;;;-5.20;100.00
45255;BME280;30989;52.078;21.014;2023-02-28T05:04:45;162381.25;;;-5.24;100.00
45255;BME280;30989;52.078;21.014;2023-02-28T05:07:10;162379.94;;;-5.24;100.00
45255;BME280;30989;52.078;21.014;2023-02-28T05:09:36;162356.09;;;-5.33;100.00
45255;BME280;30989;52.078;21.014;2023-02-28T05:12:01;162365.38;;;-5.30;100.00
45255;BME280;30989;52.078;21.014;2023-02-28T05:14:27;162350.81;;;-5.35;100.00
45255;BME280;30989;52.078;21.014;2023-02-28T05:16:52;162321.66;;;-5.46;100.00
45255;BME280;30989;52.078;21.014;2023-02-28T05:19:17;162344.19;;;-5.38;100.00
45255;BME280;30989;52.078;21.014;2023-02-28T05:21:54;162316.38;;;-5.48;100.00
45255;BME280;30989;52.078;21.014;2023-02-28T05:24:20;162342.84;;;-5.38;100.00
45255;BME280;30989;52.078;21.014;2023-02-28T05:26:48;162341.53;;;-5.39;100.00
45255;BME280;30989;52.078;21.014;2023-02-28T05:29:14;162337.56;;;-5.40;100.00
45255;BME280;30989;52.078;21.014;2023-02-28T05:31:39;162353.44;;;-5.34;100.00
45255;BME280;30989;52.078;21.014;2023-02-28T05:34:05;162361.41;;;-5.31;100.00
45255;BME280;30989;52.078;21.014;2023-02-28T05:36:31;162358.75;;;-5.32;100.00
45255;BME280;30989;52.078;21.014;2023-02-28T05:38:56;162372.00;;;-5.27;100.00
45255;BME280;30989;52.078;21.014;2023-02-28T05:41:22;162374.63;;;-5.26;100.00
45255;BME280;30989;52.078;21.014;2023-02-28T05:43:48;162366.69;;;-5.29;100.00
45255;BME280;30989;52.078;21.014;2023-02-28T05:46:14;162374.63;;;-5.26;100.00
45255;BME280;30989;52.078;21.014;2023-02-28T05:48:41;162369.34;;;-5.28;100.00
45255;BME280;30989;52.078;21.014;2023-02-28T05:51:08;162377.28;;;-5.25;100.00
45255;BME280;30989;52.078;21.014;2023-02-28T05:53:34;162390.59;;;-5.20;100.00
45255;BME280;30989;52.078;21.014;2023-02-28T05:56:00;162398.53;;;-5.17;100.00
45255;BME280;30989;52.078;21.014;2023-02-28T05:58:26;162407.78;;;-5.13;100.00
45255;BME280;30989;52.078;21.014;2023-02-28T06:01:00;162414.41;;;-5.11;100.00
45255;BME280;30989;52.078;21.014;2023-02-28T06:03:26;162430.31;;;-5.05;100.00
45255;BME280;30989;52.078;21.014;2023-02-28T06:05:52;162440.91;;;-5.01;100.00
45255;BME280;30989;52.078;21.014;2023-02-28T06:08:17;162446.19;;;-4.99;100.00
45255;BME280;30989;52.078;21.014;2023-02-28T06:10:43;162456.81;;;-4.95;100.00
45255;BME280;30989;52.078;21.014;2023-02-28T06:13:11;162476.66;;;-4.87;100.00
45255;BME280;30989;52.078;21.014;2023-02-28T06:15:38;162474.03;;;-4.88;100.00
45255;BME280;30989;52.078;21.014;2023-02-28T06:18:04;162497.88;;;-4.79;100.00
45255;BME280;30989;52.078;21.014;2023-02-28T06:20:29;162519.06;;;-4.71;100.00
45255;BME280;30989;52.078;21.014;2023-02-28T06:22:58;162533.63;;;-4.65;100.00
45255;BME280;30989;52.078;21.014;2023-02-28T06:25:25;162560.13;;;-4.55;100.00
45255;BME280;30989;52.078;21.014;2023-02-28T06:27:51;162573.38;;;-4.50;100.00
45255;BME280;30989;52.078;21.014;2023-02-28T06:30:16;162589.28;;;-4.44;100.00
45255;BME280;30989;52.078;21.014;2023-02-28T06:32:42;162609.16;;;-4.36;100.00
45255;BME280;30989;52.078;21.014;2023-02-28T06:35:08;162634.34;;;-4.27;100.00
45255;BME280;30989;52.078;21.014;2023-02-28T06:37:33;162639.66;;;-4.25;100.00
45255;BME280;30989;52.078;21.014;2023-02-28T06:40:00;162660.84;;;-4.16;100.00
45255;BME280;30989;52.078;21.014;2023-02-28T06:42:25;162684.72;;;-4.07;100.00
45255;BME280;30989;52.078;21.014;2023-02-28T06:44:57;162694.00;;;-4.04;100.00
45255;BME280;30989;52.078;21.014;2023-02-28T06:47:23;162728.47;;;-3.91;100.00
45255;BME280;30989;52.078;21.014;2023-02-28T06:49:48;162745.69;;;-3.84;100.00
45255;BME280;30989;52.078;21.014;2023-02-28T06:52:14;162748.34;;;-3.83;100.00
45255;BME280;30989;52.078;21.014;2023-02-28T06:54:40;162764.25;;;-3.77;99.91
45255;BME280;30989;52.078;21.014;2023-02-28T06:57:06;162774.88;;;-3.73;100.00
45255;BME280;30989;52.078;21.014;2023-02-28T06:59:31;162804.03;;;-3.62;100.00
45255;BME280;30989;52.078;21.014;2023-02-28T07:01:57;162830.56;;;-3.51;99.74
45255;BME280;30989;52.078;21.014;2023-02-28T07:04:22;162846.47;;;-3.45;99.70
45255;BME280;30989;52.078;21.014;2023-02-28T07:06:48;162867.69;;;-3.37;99.20
45255;BME280;30989;52.078;21.014;2023-02-28T07:09:13;162894.22;;;-3.27;99.11
45255;BME280;30989;52.078;21.014;2023-02-28T07:11:40;162911.47;;;-3.20;97.79
45255;BME280;30989;52.078;21.014;2023-02-28T07:14:06;162931.34;;;-3.13;97.53
45255;BME280;30989;52.078;21.014;2023-02-28T07:16:32;162947.28;;;-3.07;97.75
45255;BME280;30989;52.078;21.014;2023-02-28T07:18:58;162934.00;;;-3.12;97.59
45255;BME280;30989;52.078;21.014;2023-02-28T07:21:23;162993.72;;;-2.89;97.39
45255;BME280;30989;52.078;21.014;2023-02-28T07:23:49;163018.91;;;-2.79;97.33
45255;BME280;30989;52.078;21.014;2023-02-28T07:26:16;163061.38;;;-2.63;96.74
45255;BME280;30989;52.078;21.014;2023-02-28T07:28:43;163087.91;;;-2.53;96.66
45255;BME280;30989;52.078;21.014;2023-02-28T07:31:10;163115.78;;;-2.42;96.81
45255;BME280;30989;52.078;21.014;2023-02-28T07:33:36;163134.38;;;-2.35;96.01
45255;BME280;30989;52.078;21.014;2023-02-28T07:36:09;163156.94;;;-2.27;95.96
45255;BME280;30989;52.078;21.014;2023-02-28T07:38:38;163191.44;;;-2.13;95.69
45255;BME280;30989;52.078;21.014;2023-02-28T07:41:04;163208.69;;;-2.07;94.00
45255;BME280;30989;52.078;21.014;2023-02-28T07:43:30;163225.97;;;-2.00;94.30
45255;BME280;30989;52.078;21.014;2023-02-28T07:46:02;163249.88;;;-1.91;94.36
45255;BME280;30989;52.078;21.014;2023-02-28T07:48:28;163279.06;;;-1.80;94.44
45255;BME280;30989;52.078;21.014;2023-02-28T07:50:55;163309.63;;;-1.68;93.34
45255;BME280;30989;52.078;21.014;2023-02-28T07:53:20;163310.94;;;-1.68;92.44
45255;BME280;30989;52.078;21.014;2023-02-28T07:55:46;163340.16;;;-1.56;92.97
45255;BME280;30989;52.078;21.014;2023-02-28T07:58:11;163372.03;;;-1.44;91.53
45255;BME280;30989;52.078;21.014;2023-02-28T08:00:37;163381.34;;;-1.41;90.36
45255;BME280;30989;52.078;21.014;2023-02-28T08:03:02;163393.28;;;-1.36;90.47
45255;BME280;30989;52.078;21.014;2023-02-28T08:05:28;163419.84;;;-1.26;90.29
45255;BME280;30989;52.078;21.014;2023-02-28T08:07:53;163439.78;;;-1.18;90.26
45255;BME280;30989;52.078;21.014;2023-02-28T08:10:19;163461.03;;;-1.10;89.53
45255;BME280;30989;52.078;21.014;2023-02-28T08:12:45;163491.59;;;-0.99;88.73
45255;BME280;30989;52.078;21.014;2023-02-28T08:15:10;163498.25;;;-0.96;86.91
45255;BME280;30989;52.078;21.014;2023-02-28T08:17:36;163498.25;;;-0.96;87.55
45255;BME280;30989;52.078;21.014;2023-02-28T08:20:01;163518.16;;;-0.88;87.73
45255;BME280;30989;52.078;21.014;2023-02-28T08:22:27;163527.47;;;-0.85;86.49
45255;BME280;30989;52.078;21.014;2023-02-28T08:24:52;163538.09;;;-0.81;86.60
45255;BME280;30989;52.078;21.014;2023-02-28T08:27:17;163543.41;;;-0.79;83.27
45255;BME280;30989;52.078;21.014;2023-02-28T08:29:43;163539.44;;;-0.80;82.86
45255;BME280;30989;52.078;21.014;2023-02-28T08:32:08;163546.06;;;-0.78;84.43
45255;BME280;30989;52.078;21.014;2023-02-28T08:34:34;163568.66;;;-0.69;84.67
45255;BME280;30989;52.078;21.014;2023-02-28T08:36:59;163593.91;;;-0.59;81.70
45255;BME280;30989;52.078;21.014;2023-02-28T08:39:25;163579.28;;;-0.65;81.81
45255;BME280;30989;52.078;21.014;2023-02-28T08:41:51;163591.25;;;-0.60;80.45
45255;BME280;30989;52.078;21.014;2023-02-28T08:44:16;163589.94;;;-0.61;80.22
45255;BME280;30989;52.078;21.014;2023-02-28T08:46:41;163566.00;;;-0.70;79.93
45255;BME280;30989;52.078;21.014;2023-02-28T08:49:08;163600.56;;;-0.57;81.23
45255;BME280;30989;52.078;21.014;2023-02-28T08:51:35;163616.50;;;-0.51;81.38
45255;BME280;30989;52.078;21.014;2023-02-28T08:54:01;163640.44;;;-0.42;80.71
45255;BME280;30989;52.078;21.014;2023-02-28T08:56:27;163648.41;;;-0.39;80.09
45255;BME280;30989;52.078;21.014;2023-02-28T08:58:54;163643.09;;;-0.41;79.54
45255;BME280;30989;52.078;21.014;2023-02-28T09:01:26;163664.38;;;-0.33;80.98
45255;BME280;30989;52.078;21.014;2023-02-28T09:03:53;163700.25;;;-0.19;80.84
45255;BME280;30989;52.078;21.014;2023-02-28T09:06:20;163742.81;;;-0.03;80.95
45255;BME280;30989;52.078;21.014;2023-02-28T09:08:46;163773.44;;;0.09;79.80
45255;BME280;30989;52.078;21.014;2023-02-28T09:11:12;163789.38;;;0.15;78.14
45255;BME280;30989;52.078;21.014;2023-02-28T09:13:38;163784.06;;;0.13;79.22
45255;BME280;30989;52.078;21.014;2023-02-28T09:16:06;163826.63;;;0.29;77.10
45255;BME280;30989;52.078;21.014;2023-02-28T09:18:34;163833.28;;;0.32;78.33
45255;BME280;30989;52.078;21.014;2023-02-28T09:21:06;163834.59;;;0.32;78.23
45255;BME280;30989;52.078;21.014;2023-02-28T09:23:32;163854.56;;;0.40;77.81
45255;BME280;30989;52.078;21.014;2023-02-28T09:25:57;163853.22;;;0.40;76.90
45255;BME280;30989;52.078;21.014;2023-02-28T09:28:23;163875.84;;;0.48;77.44
45255;BME280;30989;52.078;21.014;2023-02-28T09:30:51;163877.16;;;0.49;75.98
45255;BME280;30989;52.078;21.014;2023-02-28T09:33:18;163879.84;;;0.50;77.34
45255;BME280;30989;52.078;21.014;2023-02-28T09:35:46;163898.44;;;0.57;76.98
45255;BME280;30989;52.078;21.014;2023-02-28T09:38:11;163926.38;;;0.68;74.03
45255;BME280;30989;52.078;21.014;2023-02-28T09:40:43;163925.06;;;0.67;68.97
45255;BME280;30989;52.078;21.014;2023-02-28T09:43:13;163917.06;;;0.64;72.17
45255;BME280;30989;52.078;21.014;2023-02-28T09:45:42;163925.06;;;0.67;73.67
45255;BME280;30989;52.078;21.014;2023-02-28T09:48:24;163939.69;;;0.73;74.79
45255;BME280;30989;52.078;21.014;2023-02-28T09:51:03;163942.34;;;0.74;70.66
45255;BME280;30989;52.078;21.014;2023-02-28T09:53:35;163898.44;;;0.57;72.08
45255;BME280;30989;52.078;21.014;2023-02-28T09:59:10;163885.16;;;0.52;72.33
45255;BME280;30989;52.078;21.014;2023-02-28T10:04:54;163923.72;;;0.67;73.07
45255;BME280;30989;52.078;21.014;2023-02-28T10:07:53;163951.66;;;0.77;72.35
45255;BME280;30989;52.078;21.014;2023-02-28T10:10:46;163967.63;;;0.83;73.88
45255;BME280;30989;52.078;21.014;2023-02-28T10:13:32;163986.25;;;0.90;73.19
45255;BME280;30989;52.078;21.014;2023-02-28T10:18:41;164084.72;;;1.28;71.15
45255;BME280;30989;52.078;21.014;2023-02-28T10:21:17;164219.16;;;1.79;70.47
45255;BME280;30989;52.078;21.014;2023-02-28T10:23:44;164397.63;;;2.47;70.91
45255;BME280;30989;52.078;21.014;2023-02-28T10:26:14;164610.81;;;3.29;69.97
45255;BME280;30989;52.078;21.014;2023-02-28T10:28:44;164820.13;;;4.08;69.32
45255;BME280;30989;52.078;21.014;2023-02-28T10:31:15;165013.53;;;4.82;66.18
45255;BME280;30989;52.078;21.014;2023-02-28T10:33:42;165136.34;;;5.29;64.06
45255;BME280;30989;52.078;21.014;2023-02-28T10:36:12;165219.09;;;5.60;65.35
45255;BME280;30989;52.078;21.014;2023-02-28T10:38:39;165359.34;;;6.13;64.77
45255;BME280;30989;52.078;21.014;2023-02-28T10:41:10;165531.66;;;6.79;65.05
45255;BME280;30989;52.078;21.014;2023-02-28T10:43:38;165605.16;;;7.07;61.47
45255;BME280;30989;52.078;21.014;2023-02-28T10:48:39;165631.88;;;7.17;59.75
45255;BME280;30989;52.078;21.014;2023-02-28T10:51:08;165639.91;;;7.20;60.97
45255;BME280;30989;52.078;21.014;2023-02-28T10:53:37;165717.41;;;7.50;61.55
45255;BME280;30989;52.078;21.014;2023-02-28T11:01:34;165844.41;;;7.98;56.84
45255;BME280;30989;52.078;21.014;2023-02-28T11:04:01;165852.44;;;8.01;57.08
45255;BME280;30989;52.078;21.014;2023-02-28T11:06:34;165888.53;;;8.15;55.00
45255;BME280;30989;52.078;21.014;2023-02-28T11:09:04;165872.50;;;8.08;54.88
45255;BME280;30989;52.078;21.014;2023-02-28T11:11:43;165869.81;;;8.07;55.61
45255;BME280;30989;52.078;21.014;2023-02-28T11:14:20;165883.19;;;8.13;55.28
45255;BME280;30989;52.078;21.014;2023-02-28T11:16:46;165980.88;;;8.50;50.62
45255;BME280;30989;52.078;21.014;2023-02-28T11:19:25;165992.91;;;8.54;51.69
45255;BME280;30989;52.078;21.014;2023-02-28T11:21:55;166030.38;;;8.68;53.82
45255;BME280;30989;52.078;21.014;2023-02-28T11:24:25;166075.84;;;8.86;51.45
45255;BME280;30989;52.078;21.014;2023-02-28T11:26:52;166057.13;;;8.79;54.35
45255;BME280;30989;52.078;21.014;2023-02-28T11:29:19;166172.19;;;9.22;54.04
45255;BME280;30989;52.078;21.014;2023-02-28T11:34:27;166348.88;;;9.89;51.10
45255;BME280;30989;52.078;21.014;2023-02-28T11:36:54;166375.63;;;9.99;49.83
45255;BME280;30989;52.078;21.014;2023-02-28T11:39:20;166322.09;;;9.79;51.00
45255;BME280;30989;52.078;21.014;2023-02-28T11:42:11;166391.72;;;10.06;52.31
45255;BME280;30989;52.078;21.014;2023-02-28T11:48:02;166622.16;;;10.93;48.74
45255;BME280;30989;52.078;21.014;2023-02-28T11:53:12;166715.94;;;11.28;50.78
45255;BME280;30989;52.078;21.014;2023-02-28T11:55:54;166882.19;;;11.91;48.48
45255;BME280;30989;52.078;21.014;2023-02-28T11:58:44;166943.84;;;12.15;49.29
45255;BME280;30989;52.078;21.014;2023-02-28T12:01:19;167013.56;;;12.41;46.95
45255;BME280;30989;52.078;21.014;2023-02-28T12:03:55;166998.81;;;12.36;46.72
45255;BME280;30989;52.078;21.014;2023-02-28T12:06:45;166890.22;;;11.94;45.56
45255;BME280;30989;52.078;21.014;2023-02-28T12:09:38;166778.94;;;11.52;39.49
45255;BME280;30989;52.078;21.014;2023-02-28T12:21:04;166710.59;;;11.26;44.50
45255;BME280;30989;52.078;21.014;2023-02-28T12:29:22;166797.69;;;11.59;43.64
45255;BME280;30989;52.078;21.014;2023-02-28T12:31:53;166898.28;;;11.98;44.43
45255;BME280;30989;52.078;21.014;2023-02-28T12:34:35;166909.00;;;12.02;41.79
45255;BME280;30989;52.078;21.014;2023-02-28T12:37:06;166854.03;;;11.81;43.25
45255;BME280;30989;52.078;21.014;2023-02-28T12:39:39;166868.78;;;11.86;43.48
45255;BME280;30989;52.078;21.014;2023-02-28T12:42:12;166943.84;;;12.15;43.83
45255;BME280;30989;52.078;21.014;2023-02-28T12:44:55;166981.38;;;12.29;42.50
45255;BME280;30989;52.078;21.014;2023-02-28T12:47:22;166919.72;;;12.06;41.60
45255;BME280;30989;52.078;21.014;2023-02-28T12:50:03;166866.09;;;11.85;41.67
45255;BME280;30989;52.078;21.014;2023-02-28T12:52:49;166756.16;;;11.44;41.67
45255;BME280;30989;52.078;21.014;2023-02-28T12:58:47;166461.38;;;10.32;42.64
45255;BME280;30989;52.078;21.014;2023-02-28T13:09:38;166657.00;;;11.06;42.28
45255;BME280;30989;52.078;21.014;2023-02-28T13:12:14;166608.75;;;10.88;42.09
45255;BME280;30989;52.078;21.014;2023-02-28T13:14:42;166493.56;;;10.44;41.35
45255;BME280;30989;52.078;21.014;2023-02-28T13:19:42;166391.72;;;10.06;41.62
45255;BME280;30989;52.078;21.014;2023-02-28T13:22:36;166422.50;;;10.17;43.17
45255;BME280;30989;52.078;21.014;2023-02-28T13:27:54;166598.03;;;10.84;43.30
45255;BME280;30989;52.078;21.014;2023-02-28T13:35:45;166364.94;;;9.95;43.01
45255;BME280;30989;52.078;21.014;2023-02-28T13:38:41;166370.28;;;9.97;43.18
45255;BME280;30989;52.078;21.014;2023-02-28T13:46:33;166425.19;;;10.18;43.85
45255;BME280;30989;52.078;21.014;2023-02-28T13:51:47;166399.75;;;10.09;43.13
45255;BME280;30989;52.078;21.014;2023-02-28T13:57:10;166418.50;;;10.16;42.39
45255;BME280;30989;52.078;21.014;2023-02-28T14:05:06;166492.25;;;10.44;44.43
45255;BME280;30989;52.078;21.014;2023-02-28T14:07:48;166598.03;;;10.84;43.81
45255;BME280;30989;52.078;21.014;2023-02-28T14:16:05;166569.91;;;10.73;41.03
45255;BME280;30989;52.078;21.014;2023-02-28T14:18:34;166458.72;;;10.31;41.06
45255;BME280;30989;52.078;21.014;2023-02-28T14:21:23;166445.31;;;10.26;42.70
45255;BME280;30989;52.078;21.014;2023-02-28T14:26:44;166285.94;;;9.65;41.36
45255;BME280;30989;52.078;21.014;2023-02-28T14:29:30;166196.28;;;9.31;42.42
45255;BME280;30989;52.078;21.014;2023-02-28T14:37:39;166132.03;;;9.07;43.02
45255;BME280;30989;52.078;21.014;2023-02-28T14:40:26;166164.16;;;9.19;42.63
45255;BME280;30989;52.078;21.014;2023-02-28T14:43:01;166114.66;;;9.00;43.38
45255;BME280;30989;52.078;21.014;2023-02-28T14:45:30;166142.75;;;9.11;42.79
45255;BME280;30989;52.078;21.014;2023-02-28T14:47:57;166178.88;;;9.25;43.74
45255;BME280;30989;52.078;21.014;2023-02-28T14:50:34;166223.03;;;9.42;42.20